Terminal Aerodrome Forecast
Issued by NWS

Home | Current Version | Previous Version | Text Only | Print | Product List | Glossary On
Versions: 1 2 3 4 5 6 7 8 9 10 11 12 13 14 15 16 17
947
FTUS46 KLOX 242343
TAFBUR
TAF
KBUR 242343Z 2500/2524 18010KT P6SM SCT150
     FM250400 16006KT P6SM SCT150
     FM250700 15005KT 5SM BR OVC010
     FM251300 16008KT 5SM -DZ BR BKN007 OVC014
     FM251500 16009KT P6SM SCT009 OVC018
     FM251700 18009KT P6SM SCT011 BKN022
     FM252000 19010KT P6SM SCT022 BKN035=

USA.gov is the U.S. government's official web portal to all federal, state and local government web resources and services.